createdAt,value
2018-08-13T00:00:13.190Z,97610.11
2018-08-13T00:02:42.390Z,97606.78
2018-08-13T00:05:11.491Z,97607.55
2018-08-13T00:07:40.614Z,97601.89
2018-08-13T00:10:10.995Z,97589.83
2018-08-13T00:12:40.146Z,97591.64
2018-08-13T00:15:09.250Z,97599.66
2018-08-13T00:17:38.504Z,97591.87
2018-08-13T00:20:08.770Z,97585.63
2018-08-13T00:22:37.907Z,97583.42
2018-08-13T00:25:07.050Z,97575.49
2018-08-13T00:27:36.394Z,97574.34
2018-08-13T00:30:05.983Z,97577.23
2018-08-13T00:32:35.210Z,97570.55
2018-08-13T00:35:04.699Z,97568.89
2018-08-13T00:37:33.862Z,97575.98
2018-08-13T00:40:03.065Z,97579.27
2018-08-13T00:42:32.986Z,97582.83
2018-08-13T00:45:02.486Z,97578.41
2018-08-13T00:47:31.706Z,97578.25
2018-08-13T00:50:00.919Z,97577.84
2018-08-13T00:52:30.266Z,97580.20
2018-08-13T00:54:59.667Z,97565.56
2018-08-13T00:57:28.838Z,97562.74
2018-08-13T00:59:58.481Z,97566.59
2018-08-13T01:02:27.603Z,97571.83
2018-08-13T01:04:56.806Z,97568.98
2018-08-13T01:07:26.314Z,97563.37
2018-08-13T01:09:55.449Z,97552.28
2018-08-13T01:12:25.699Z,97550.28
2018-08-13T01:14:55.229Z,97542.88
2018-08-13T01:17:24.374Z,97545.37
2018-08-13T01:19:53.497Z,97540.78
2018-08-13T01:22:22.879Z,97544.44
2018-08-13T01:24:52.325Z,97539.73
2018-08-13T01:27:26.610Z,97534.67
2018-08-13T01:29:55.740Z,97538.81
2018-08-13T01:32:25.104Z,97533.59
2018-08-13T01:34:54.218Z,97537.20
2018-08-13T01:37:23.406Z,97538.63
2018-08-13T01:39:52.593Z,97537.55
2018-08-13T01:42:21.750Z,97532.59
2018-08-13T01:44:50.917Z,97538.73
2018-08-13T01:47:20.097Z,97533.68
2018-08-13T01:49:49.298Z,97534.85
2018-08-13T01:52:19.330Z,97531.78
2018-08-13T01:54:48.455Z,97530.49
2018-08-13T01:57:17.613Z,97533.41
2018-08-13T01:59:46.822Z,97538.34
2018-08-13T02:02:16.704Z,97535.81
2018-08-13T02:04:49.175Z,97528.66
2018-08-13T02:07:20.685Z,97527.38
2018-08-13T02:09:50.597Z,97523.56
2018-08-13T02:12:20.611Z,97522.34
2018-08-13T02:14:50.644Z,97529.22
2018-08-13T02:17:20.707Z,97526.13
2018-08-13T02:19:51.690Z,97536.33
2018-08-13T02:22:21.260Z,97537.50
2018-08-13T02:24:50.421Z,97534.42
2018-08-13T02:27:19.550Z,97538.45
2018-08-13T02:29:49.029Z,97535.43
2018-08-13T02:32:18.131Z,97531.95
2018-08-13T02:34:46.973Z,97523.91
2018-08-13T02:37:16.354Z,97522.97
2018-08-13T02:39:45.458Z,97512.92
2018-08-13T02:42:14.782Z,97512.19
2018-08-13T02:44:44.110Z,97506.98
2018-08-13T02:47:13.265Z,97502.91
2018-08-13T02:49:42.389Z,97494.81
2018-08-13T02:52:11.706Z,97501.53
2018-08-13T02:54:40.903Z,97507.41
2018-08-13T02:57:10.010Z,97511.83
2018-08-13T02:59:39.155Z,97515.95
2018-08-13T03:02:08.234Z,97521.63
2018-08-13T03:04:37.377Z,97510.99
2018-08-13T03:07:06.879Z,97514.80
2018-08-13T03:09:36.006Z,97520.19
2018-08-13T03:12:05.315Z,97523.66
2018-08-13T03:14:34.475Z,97523.68
2018-08-13T03:17:03.589Z,97523.13
2018-08-13T03:19:32.704Z,97524.59
2018-08-13T03:22:01.790Z,97517.09
2018-08-13T03:24:31.713Z,97520.45
2018-08-13T03:27:01.037Z,97516.97
2018-08-13T03:29:30.217Z,97515.75
2018-08-13T03:31:59.431Z,97517.00
2018-08-13T03:34:28.723Z,97515.45
2018-08-13T03:36:58.026Z,97521.94
2018-08-13T03:39:27.854Z,97523.22
2018-08-13T03:41:57.029Z,97516.50
2018-08-13T03:44:26.106Z,97513.68
2018-08-13T03:46:55.193Z,97511.33
2018-08-13T03:49:24.281Z,97501.83
2018-08-13T03:51:58.242Z,97508.75
2018-08-13T03:54:27.349Z,97515.42
2018-08-13T03:56:57.250Z,97507.13
2018-08-13T03:59:26.346Z,97500.22
2018-08-13T04:01:55.483Z,97491.33
2018-08-13T04:04:24.606Z,97489.50
2018-08-13T04:06:53.716Z,97487.75
2018-08-13T04:09:22.901Z,97481.38
2018-08-13T04:11:52.686Z,97478.27
2018-08-13T04:14:22.257Z,97477.84
2018-08-13T04:16:58.842Z,97468.85
2018-08-13T04:19:27.969Z,97464.52
2018-08-13T04:21:57.237Z,97463.07
2018-08-13T04:24:26.457Z,97461.39
2018-08-13T04:26:55.799Z,97460.89
2018-08-13T04:29:25.738Z,97455.11
2018-08-13T04:31:56.738Z,97455.84
2018-08-13T04:34:25.861Z,97452.77
2018-08-13T04:36:55.037Z,97451.09
2018-08-13T04:39:24.218Z,97447.72
2018-08-13T04:41:53.310Z,97445.27
2018-08-13T04:44:22.414Z,97440.87
2018-08-13T04:46:51.546Z,97447.05
2018-08-13T04:49:21.169Z,97453.23
2018-08-13T04:51:50.261Z,97454.31
2018-08-13T04:54:19.358Z,97460.59
2018-08-13T04:56:48.470Z,97458.16
2018-08-13T04:59:17.702Z,97461.09
2018-08-13T05:01:46.816Z,97463.81
2018-08-13T05:04:15.910Z,97463.78
2018-08-13T05:06:45.839Z,97461.33
2018-08-13T05:09:14.938Z,97457.76
2018-08-13T05:11:44.053Z,97461.19
2018-08-13T05:14:13.149Z,97472.84
2018-08-13T05:16:43.049Z,97470.67
2018-08-13T05:19:12.506Z,97465.33
2018-08-13T05:21:41.609Z,97466.98
2018-08-13T05:24:11.493Z,97452.63
2018-08-13T05:26:40.736Z,97453.72
2018-08-13T05:29:10.687Z,97452.11
2018-08-13T05:31:39.854Z,97454.74
2018-08-13T05:34:09.215Z,97459.53
2018-08-13T05:36:37.932Z,97469.34
2018-08-13T05:39:11.349Z,97477.80
2018-08-13T05:41:40.610Z,97473.21
2018-08-13T05:44:11.302Z,97459.44
2018-08-13T05:46:40.434Z,97462.60
2018-08-13T05:49:11.986Z,97465.94
2018-08-13T05:51:41.153Z,97466.75
2018-08-13T05:54:10.365Z,97467.81
2018-08-13T05:56:39.694Z,97472.38
2018-08-13T05:59:09.269Z,97472.95
2018-08-13T06:01:39.331Z,97473.46
2018-08-13T06:04:08.550Z,97479.36
2018-08-13T06:06:38.743Z,97480.66
2018-08-13T06:09:11.185Z,97479.41
2018-08-13T06:11:40.482Z,97487.01
2018-08-13T06:14:11.921Z,97487.30
2018-08-13T06:16:41.419Z,97488.97
2018-08-13T06:19:10.525Z,97490.84
2018-08-13T06:21:40.381Z,97495.50
2018-08-13T06:24:09.661Z,97499.06
2018-08-13T06:26:38.727Z,97504.38
2018-08-13T06:29:07.949Z,97514.86
2018-08-13T06:31:37.260Z,97503.94
2018-08-13T06:34:11.106Z,97504.94
2018-08-13T06:36:40.944Z,97498.74
2018-08-13T06:39:11.273Z,97495.64
2018-08-13T06:41:40.696Z,97496.72
2018-08-13T06:44:09.853Z,97506.56
2018-08-13T06:46:39.173Z,97514.27
2018-08-13T06:49:09.527Z,97515.84
2018-08-13T06:51:38.550Z,97513.74
2018-08-13T06:54:07.678Z,97532.92
2018-08-13T06:56:37.325Z,97537.56
2018-08-13T06:59:11.112Z,97535.95
2018-08-13T07:01:40.459Z,97526.69
2018-08-13T07:04:10.363Z,97525.01
2018-08-13T07:06:40.866Z,97530.89
2018-08-13T07:09:11.321Z,97521.38
2018-08-13T07:11:41.593Z,97518.98
2018-08-13T07:14:10.718Z,97531.97
2018-08-13T07:16:39.810Z,97540.56
2018-08-13T07:19:09.450Z,97545.06
2018-08-13T07:21:38.541Z,97550.98
2018-08-13T07:24:07.874Z,97557.35
2018-08-13T07:26:37.228Z,97555.05
2018-08-13T07:29:06.678Z,97559.17
2018-08-13T07:31:35.459Z,97571.07
2018-08-13T07:34:05.329Z,97580.19
2018-08-13T07:36:34.688Z,97584.55
2018-08-13T07:39:03.950Z,97593.92
2018-08-13T07:41:33.142Z,97592.34
2018-08-13T07:44:02.486Z,97595.84
2018-08-13T07:46:32.087Z,97600.42
2018-08-13T07:49:01.173Z,97592.37
2018-08-13T07:51:30.373Z,97593.45
2018-08-13T07:53:59.926Z,97603.97
2018-08-13T07:56:29.092Z,97604.38
2018-08-13T07:58:58.698Z,97599.23
2018-08-13T08:01:28.414Z,97597.91
2018-08-13T08:03:57.563Z,97603.63
2018-08-13T08:06:26.717Z,97603.27
2018-08-13T08:08:55.800Z,97597.87
2018-08-13T08:11:24.920Z,97596.04
2018-08-13T08:13:54.040Z,97583.20
2018-08-13T08:16:23.134Z,97576.52
2018-08-13T08:18:52.783Z,97579.98
2018-08-13T08:21:25.393Z,97595.19
2018-08-13T08:23:54.513Z,97598.38
2018-08-13T08:26:24.020Z,97608.35
2018-08-13T08:28:53.759Z,97600.69
2018-08-13T08:31:23.266Z,97607.37
2018-08-13T08:33:52.545Z,97622.45
2018-08-13T08:36:21.882Z,97615.04
2018-08-13T08:38:51.698Z,97614.11
2018-08-13T08:41:20.834Z,97617.83
2018-08-13T08:43:50.010Z,97622.45
2018-08-13T08:46:19.477Z,97612.95
2018-08-13T08:48:48.593Z,97614.00
2018-08-13T08:51:17.750Z,97613.44
2018-08-13T08:53:46.893Z,97615.75
2018-08-13T08:56:16.750Z,97628.79
2018-08-13T08:58:45.885Z,97625.59
2018-08-13T09:01:15.039Z,97629.98
2018-08-13T09:03:44.154Z,97632.72
2018-08-13T09:06:13.278Z,97632.29
2018-08-13T09:08:42.407Z,97630.96
2018-08-13T09:11:11.522Z,97635.97
2018-08-13T09:13:40.674Z,97647.08
2018-08-13T09:16:09.862Z,97657.52
2018-08-13T09:18:56.401Z,97656.61
2018-08-13T09:21:32.389Z,97663.00
2018-08-13T09:24:19.879Z,97681.64
2018-08-13T09:26:59.918Z,97685.16
2018-08-13T09:29:45.958Z,97690.25
2018-08-13T09:32:33.189Z,97694.42
2018-08-13T09:35:10.502Z,97702.48
2018-08-13T09:37:39.667Z,97704.30
2018-08-13T09:40:09.683Z,97700.20
2018-08-13T09:42:38.833Z,97702.66
2018-08-13T09:45:09.148Z,97709.97
2018-08-13T09:47:39.017Z,97708.23
2018-08-13T09:50:12.649Z,97705.86
2018-08-13T09:52:42.174Z,97704.80
2018-08-13T09:55:11.512Z,97715.21
2018-08-13T09:57:40.782Z,97707.05
2018-08-13T10:00:16.840Z,97702.05
2018-08-13T10:02:46.946Z,97707.48
2018-08-13T10:05:16.626Z,97705.11
2018-08-13T10:07:46.342Z,97702.49
2018-08-13T10:10:16.581Z,97692.92
2018-08-13T10:12:46.365Z,97691.94
2018-08-13T10:15:16.113Z,97691.95
2018-08-13T10:17:51.881Z,97693.91
2018-08-13T10:20:22.097Z,97695.13
2018-08-13T10:22:51.214Z,97692.05
2018-08-13T10:25:20.425Z,97687.02
2018-08-13T10:27:49.576Z,97688.33
2018-08-13T10:30:19.489Z,97694.58
2018-08-13T10:32:48.639Z,97685.41
2018-08-13T10:35:16.904Z,97687.19
2018-08-13T10:37:46.499Z,97694.41
2018-08-13T10:40:18.263Z,97694.34
2018-08-13T10:42:47.261Z,97687.14
2018-08-13T10:45:16.742Z,97697.51
2018-08-13T10:47:46.338Z,97696.36
2018-08-13T10:50:15.697Z,97701.12
2018-08-13T10:52:45.164Z,97690.52
2018-08-13T10:55:15.547Z,97691.73
2018-08-13T10:57:46.125Z,97683.33
2018-08-13T11:00:16.498Z,97676.99
2018-08-13T11:02:45.952Z,97681.55
2018-08-13T11:05:15.598Z,97676.47
2018-08-13T11:07:45.034Z,97669.30
2018-08-13T11:10:16.265Z,97683.77
2018-08-13T11:12:45.310Z,97674.31
2018-08-13T11:15:19.053Z,97662.96
2018-08-13T11:17:48.160Z,97664.27
2018-08-13T11:20:17.595Z,97666.97
2018-08-13T11:22:47.473Z,97669.88
2018-08-13T11:25:17.367Z,97662.73
2018-08-13T11:27:46.703Z,97665.61
2018-08-13T11:30:17.298Z,97657.09
2018-08-13T11:32:46.421Z,97652.20
2018-08-13T11:35:16.036Z,97649.31
2018-08-13T11:37:45.244Z,97643.86
2018-08-13T11:40:16.723Z,97636.07
2018-08-13T11:42:46.813Z,97628.91
2018-08-13T11:45:16.009Z,97628.75
2018-08-13T11:47:45.165Z,97627.88
2018-08-13T11:50:20.329Z,97638.82
2018-08-13T11:52:50.585Z,97639.14
2018-08-13T11:55:21.120Z,97628.44
2018-08-13T11:57:51.209Z,97624.44
2018-08-13T12:00:20.349Z,97623.28
2018-08-13T12:02:49.481Z,97621.02
2018-08-13T12:05:18.589Z,97622.91
2018-08-13T12:07:47.760Z,97621.97
2018-08-13T12:10:17.358Z,97622.63
2018-08-13T12:12:46.514Z,97615.54
2018-08-13T12:15:15.765Z,97604.56
2018-08-13T12:17:45.204Z,97599.03
2018-08-13T12:20:17.188Z,97605.49
2018-08-13T12:22:46.686Z,97607.95
2018-08-13T12:25:23.655Z,97598.20
2018-08-13T12:27:53.250Z,97600.30
2018-08-13T12:30:22.395Z,97586.16
2018-08-13T12:32:52.114Z,97592.08
2018-08-13T12:35:21.303Z,97584.17
2018-08-13T12:37:50.785Z,97590.20
2018-08-13T12:40:20.041Z,97587.70
2018-08-13T12:42:49.777Z,97591.64
2018-08-13T12:45:19.385Z,97583.10
2018-08-13T12:47:49.154Z,97576.53
2018-08-13T12:50:20.249Z,97574.17
2018-08-13T12:52:50.578Z,97566.07
2018-08-13T12:55:19.745Z,97570.37
2018-08-13T12:57:48.923Z,97571.17
2018-08-13T13:00:19.114Z,97566.09
2018-08-13T13:02:48.255Z,97571.78
2018-08-13T13:05:18.117Z,97576.06
2018-08-13T13:07:47.256Z,97572.58
2018-08-13T13:10:17.434Z,97581.83
2018-08-13T13:12:46.721Z,97578.11
2018-08-13T13:15:17.929Z,97573.27
2018-08-13T13:17:47.830Z,97564.15
2018-08-13T13:20:19.269Z,97567.81
2018-08-13T13:22:48.756Z,97565.80
2018-08-13T13:25:19.017Z,97572.73
2018-08-13T13:27:48.137Z,97562.59
2018-08-13T13:30:17.734Z,97563.42
2018-08-13T13:32:47.430Z,97571.07
2018-08-13T13:35:17.745Z,97573.91
2018-08-13T13:37:52.109Z,97568.19
2018-08-13T13:40:21.768Z,97565.46
2018-08-13T13:42:50.859Z,97558.63
2018-08-13T13:45:20.150Z,97555.77
2018-08-13T13:47:49.289Z,97555.66
2018-08-13T13:50:19.423Z,97557.14
2018-08-13T13:52:48.561Z,97558.03
2018-08-13T13:55:17.962Z,97541.92
2018-08-13T13:57:46.797Z,97548.84
2018-08-13T14:00:18.551Z,97540.41
2018-08-13T14:02:49.185Z,97544.23
2018-08-13T14:05:18.438Z,97537.39
2018-08-13T14:07:47.685Z,97538.27
2018-08-13T14:10:19.406Z,97542.81
2018-08-13T14:12:48.553Z,97537.47
2018-08-13T14:15:20.921Z,97536.30
2018-08-13T14:17:50.717Z,97531.82
2018-08-13T14:20:20.101Z,97531.28
2018-08-13T14:22:49.249Z,97525.53
2018-08-13T14:25:18.366Z,97521.50
2018-08-13T14:27:47.979Z,97511.75
2018-08-13T14:30:21.386Z,97509.33
2018-08-13T14:32:51.310Z,97514.02
2018-08-13T14:35:21.658Z,97504.73
2018-08-13T14:37:51.181Z,97502.40
2018-08-13T14:40:20.997Z,97505.93
2018-08-13T14:42:50.126Z,97507.42
2018-08-13T14:45:19.850Z,97496.75
2018-08-13T14:47:50.452Z,97491.34
2018-08-13T14:50:19.619Z,97478.29
2018-08-13T14:52:49.509Z,97472.19
2018-08-13T14:55:22.233Z,97476.16
2018-08-13T14:57:51.398Z,97478.87
2018-08-13T15:00:25.602Z,97468.59
2018-08-13T15:02:56.191Z,97474.12
2018-08-13T15:05:25.395Z,97486.64
2018-08-13T15:07:54.514Z,97502.39
2018-08-13T15:10:25.022Z,97499.02
2018-08-13T15:12:54.357Z,97490.98
2018-08-13T15:15:23.495Z,97499.20
2018-08-13T15:17:52.878Z,97499.36
2018-08-13T15:20:24.773Z,97488.64
2018-08-13T15:22:54.136Z,97486.13
2018-08-13T15:25:23.321Z,97484.17
2018-08-13T15:27:52.580Z,97490.09
2018-08-13T15:30:22.602Z,97489.53
2018-08-13T15:32:53.757Z,97488.16
2018-08-13T15:35:22.899Z,97494.53
2018-08-13T15:37:52.284Z,97491.05
2018-08-13T15:40:21.125Z,97493.92
2018-08-13T15:42:49.938Z,97501.66
2018-08-13T15:45:21.821Z,97498.39
2018-08-13T15:47:51.251Z,97505.77
2018-08-13T15:50:21.520Z,97500.09
2018-08-13T15:52:51.047Z,97502.84
2018-08-13T15:55:20.666Z,97493.13
2018-08-13T15:57:49.828Z,97487.66
2018-08-13T16:00:26.997Z,97476.64
2018-08-13T16:02:56.409Z,97469.48
2018-08-13T16:05:25.550Z,97472.16
2018-08-13T16:07:54.793Z,97480.80
2018-08-13T16:10:23.862Z,97474.92
2018-08-13T16:12:55.284Z,97471.81
2018-08-13T16:15:25.368Z,97472.86
2018-08-13T16:17:54.946Z,97472.61
2018-08-13T16:20:24.757Z,97468.34
2018-08-13T16:22:54.034Z,97471.95
2018-08-13T16:25:23.262Z,97469.84
2018-08-13T16:27:52.953Z,97465.36
2018-08-13T16:30:26.942Z,97465.23
2018-08-13T16:32:56.238Z,97450.63
2018-08-13T16:35:25.790Z,97448.39
2018-08-13T16:37:55.285Z,97453.58
2018-08-13T16:40:25.205Z,97453.25
2018-08-13T16:42:54.937Z,97453.16
2018-08-13T16:45:24.877Z,97473.70
2018-08-13T16:47:56.511Z,97489.79
2018-08-13T16:50:30.585Z,97499.43
2018-08-13T16:53:00.882Z,97495.61
2018-08-13T16:55:31.825Z,97502.41
2018-08-13T16:58:00.469Z,97505.02
2018-08-13T17:00:31.023Z,97510.40
2018-08-13T17:02:59.269Z,97507.74
2018-08-13T17:05:31.350Z,97511.79
2018-08-13T17:08:00.648Z,97517.20
2018-08-13T17:10:31.001Z,97514.50
2018-08-13T17:12:59.889Z,97517.47
2018-08-13T17:15:31.665Z,97513.63
2018-08-13T17:18:02.266Z,97515.02
2018-08-13T17:20:34.142Z,97516.00
2018-08-13T17:23:03.317Z,97504.81
2018-08-13T17:25:32.417Z,97496.94
2018-08-13T17:28:01.700Z,97501.72
2018-08-13T17:30:31.445Z,97503.52
2018-08-13T17:33:02.073Z,97508.22
2018-08-13T17:35:34.367Z,97508.23
2018-08-13T17:38:06.069Z,97504.14
2018-08-13T17:40:35.290Z,97516.05
2018-08-13T17:43:05.520Z,97516.58
2018-08-13T17:45:34.496Z,97516.24
2018-08-13T17:48:03.665Z,97512.21
2018-08-13T17:50:32.824Z,97516.24
2018-08-13T17:53:02.439Z,97517.84
2018-08-13T17:55:32.337Z,97524.37
2018-08-13T17:58:02.998Z,97533.75
2018-08-13T18:00:32.254Z,97529.02
2018-08-13T18:03:02.068Z,97531.08
2018-08-13T18:05:32.003Z,97540.72
2018-08-13T18:08:02.870Z,97536.36
2018-08-13T18:10:33.401Z,97532.63
2018-08-13T18:13:04.585Z,97539.33
2018-08-13T18:15:34.221Z,97535.27
2018-08-13T18:18:03.750Z,97536.08
2018-08-13T18:20:33.079Z,97533.51
2018-08-13T18:23:02.202Z,97545.66
2018-08-13T18:25:31.367Z,97549.04
2018-08-13T18:28:01.160Z,97548.30
2018-08-13T18:30:30.402Z,97553.74
2018-08-13T18:33:00.522Z,97564.40
2018-08-13T18:35:29.689Z,97562.89
2018-08-13T18:38:00.495Z,97568.59
2018-08-13T18:40:32.090Z,97569.13
2018-08-13T18:43:01.518Z,97571.45
2018-08-13T18:45:30.917Z,97571.19
2018-08-13T18:48:00.817Z,97581.80
2018-08-13T18:50:30.027Z,97590.09
2018-08-13T18:52:59.269Z,97586.78
2018-08-13T18:55:28.254Z,97596.36
2018-08-13T18:57:57.094Z,97598.41
2018-08-13T19:00:28.500Z,97598.66
2018-08-13T19:02:59.505Z,97595.55
2018-08-13T19:05:28.822Z,97593.48
2018-08-13T19:07:58.380Z,97597.86
2018-08-13T19:10:28.018Z,97604.84
2018-08-13T19:12:57.129Z,97610.27
2018-08-13T19:15:27.463Z,97608.67
2018-08-13T19:17:56.653Z,97600.66
2018-08-13T19:20:26.174Z,97611.75
2018-08-13T19:22:55.405Z,97612.78
2018-08-13T19:25:27.556Z,97618.75
2018-08-13T19:27:57.517Z,97625.73
2018-08-13T19:30:27.604Z,97633.71
2018-08-13T19:32:56.753Z,97630.91
2018-08-13T19:35:26.005Z,97624.96
2018-08-13T19:37:55.149Z,97621.63
2018-08-13T19:40:25.619Z,97630.92
2018-08-13T19:42:54.757Z,97628.09
2018-08-13T19:45:24.687Z,97629.40
2018-08-13T19:47:54.725Z,97633.27
2018-08-13T19:50:23.708Z,97629.91
2018-08-13T19:52:53.325Z,97628.61
2018-08-13T19:55:23.161Z,97632.97
2018-08-13T19:57:52.350Z,97633.44
2018-08-13T20:00:27.103Z,97630.31
2018-08-13T20:02:56.682Z,97625.45
2018-08-13T20:05:26.902Z,97628.05
2018-08-13T20:07:56.193Z,97622.36
2018-08-13T20:10:25.321Z,97620.06
2018-08-13T20:12:54.451Z,97625.25
2018-08-13T20:15:25.031Z,97625.75
2018-08-13T20:17:54.158Z,97623.65
2018-08-13T20:20:25.679Z,97628.33
2018-08-13T20:22:54.793Z,97632.98
2018-08-13T20:25:23.915Z,97637.09
2018-08-13T20:27:53.853Z,97630.37
2018-08-13T20:30:23.546Z,97636.30
2018-08-13T20:32:53.828Z,97636.31
2018-08-13T20:35:23.169Z,97638.62
2018-08-13T20:37:52.437Z,97643.75
2018-08-13T20:40:22.237Z,97645.55
2018-08-13T20:42:51.651Z,97643.24
2018-08-13T20:45:21.988Z,97640.67
2018-08-13T20:47:51.437Z,97639.39
2018-08-13T20:50:22.881Z,97642.73
2018-08-13T20:52:53.626Z,97651.47
2018-08-13T20:55:27.438Z,97646.05
2018-08-13T20:57:56.634Z,97649.93
2018-08-13T21:00:27.365Z,97650.72
2018-08-13T21:02:56.508Z,97650.22
2018-08-13T21:05:25.638Z,97657.93
2018-08-13T21:07:54.862Z,97654.34
2018-08-13T21:10:25.304Z,97662.89
2018-08-13T21:12:54.743Z,97666.48
2018-08-13T21:15:24.656Z,97672.44
2018-08-13T21:17:54.570Z,97672.27
2018-08-13T21:20:26.926Z,97678.25
2018-08-13T21:22:56.489Z,97677.23
2018-08-13T21:25:25.635Z,97676.20
2018-08-13T21:27:55.070Z,97677.73
2018-08-13T21:30:24.163Z,97676.71
2018-08-13T21:32:53.539Z,97674.39
2018-08-13T21:35:25.175Z,97680.09
2018-08-13T21:37:54.712Z,97677.97
2018-08-13T21:40:23.832Z,97674.09
2018-08-13T21:42:52.998Z,97681.58
2018-08-13T21:45:22.209Z,97684.42
2018-08-13T21:47:51.037Z,97687.19
2018-08-13T21:50:22.641Z,97685.77
2018-08-13T21:52:54.240Z,97688.29
2018-08-13T21:55:25.041Z,97687.28
2018-08-13T21:57:54.345Z,97687.36
2018-08-13T22:00:31.165Z,97696.14
2018-08-13T22:03:02.422Z,97697.58
2018-08-13T22:05:31.593Z,97701.13
2018-08-13T22:08:00.883Z,97695.72
2018-08-13T22:10:30.138Z,97701.42
2018-08-13T22:12:59.470Z,97698.58
2018-08-13T22:15:32.221Z,97701.73
2018-08-13T22:18:02.969Z,97698.90
2018-08-13T22:20:33.922Z,97710.30
2018-08-13T22:23:04.329Z,97713.44
2018-08-13T22:25:42.839Z,97716.23
2018-08-13T22:28:15.029Z,97712.61
2018-08-13T22:30:44.198Z,97714.86
2018-08-13T22:33:13.445Z,97718.95
2018-08-13T22:35:42.961Z,97727.65
2018-08-13T22:38:12.086Z,97726.82
2018-08-13T22:40:41.818Z,97720.30
2018-08-13T22:43:10.998Z,97728.77
2018-08-13T22:45:40.112Z,97724.68
2018-08-13T22:48:09.447Z,97728.42
2018-08-13T22:50:39.002Z,97734.50
2018-08-13T22:53:08.541Z,97737.80
2018-08-13T22:55:37.644Z,97735.77
2018-08-13T22:58:06.775Z,97738.39
2018-08-13T23:00:36.098Z,97737.16
2018-08-13T23:03:06.526Z,97743.03
2018-08-13T23:05:38.107Z,97748.25
2018-08-13T23:08:07.737Z,97747.22
2018-08-13T23:10:36.945Z,97744.97
2018-08-13T23:13:10.986Z,97750.72
2018-08-13T23:15:40.137Z,97750.75
2018-08-13T23:18:09.288Z,97758.77
2018-08-13T23:20:39.110Z,97762.39
2018-08-13T23:23:08.291Z,97763.66
2018-08-13T23:25:37.820Z,97767.54
2018-08-13T23:28:09.861Z,97761.61
2018-08-13T23:30:39.054Z,97777.28
2018-08-13T23:33:08.755Z,97774.98
2018-08-13T23:35:37.913Z,97770.68
2018-08-13T23:38:07.053Z,97766.85
2018-08-13T23:40:36.158Z,97771.22
2018-08-13T23:43:05.306Z,97763.18
2018-08-13T23:45:35.002Z,97762.85
2018-08-13T23:48:04.165Z,97762.55
2018-08-13T23:50:33.269Z,97757.95
2018-08-13T23:53:02.406Z,97768.74
2018-08-13T23:55:38.730Z,97768.16
2018-08-13T23:58:11.449Z,97761.55
